• Join FlightAware (Why Join?)
  • Login
  • US Flag 
 
01:28AM EST


 

Airport Tracker/Info


-or-


 

Live Flight TrackerFlight Track Log ✈ N534QS ✈ 18-May-2013 ✈ KPBI - TBPB / BGI

Flight Track Log - Related Links

Times and Time Zones

All times are in EDT time to prevent confusion due to time zone crossing. See the N534QS flight status page for this flight to view local times or setup timezone preferences in your user account.

Time Position Orientation Groundspeed Altitude Reporting Facility
EDT Latitude Longitude Course Direction KTS MPH feet Rate Location/Type
01:32PM 26.6714 -79.9858 90° East 257 296 5,500  Level Miami Center
01:33PM 26.6333 -79.9175 122° Southeast 282 325 7,000 720 Climbing Miami Center
01:34PM 26.5847 -79.8372 124° Southeast 297 342 7,000  Level Miami Center
01:35PM 26.5464 -79.7711 123° Southeast 297 342 7,000 660 Level Miami Center
01:36PM 26.5000 -79.6889 122° Southeast 286 329 8,400 1,620 Climbing Miami Center
01:37PM 26.6667 -79.1784 90° East  Level FlightAware Approximate
01:37PM 26.5058 -79.6053 86° East 273 314 10,300  Level Miami Center
01:38PM 26.5119 -79.4894 87° East 317 365 12,800 2,700 Climbing Miami Center
01:39PM 26.5181 -79.3828 86° East 365 420 15,700 2,880 Climbing Miami Center
01:40PM 26.5267 -79.2461 86° East 399 459 18,600 2,760 Climbing Miami Center
01:41PM 26.5372 -79.1161 85° East 410 472 21,300 2,700 Climbing Miami Center
01:42PM 26.5456 -78.9792 86° East 421 484 24,000 2,640 Climbing Miami Center
01:43PM 26.5497 -78.8308 88° East 451 519 26,600 2,460 Climbing Miami Center
01:44PM 26.5286 -78.6817 99° East 479 551 29,000 2,100 Climbing Miami Center
01:45PM 26.4694 -78.5600 118° Southeast 469 540 30,800 2,280 Climbing Miami Center
01:46PM 26.3894 -78.4314 125° Southeast 483 556 33,600 2,100 Climbing Miami Center
01:47PM 26.3178 -78.2961 121° Southeast 495 570 35,000 660 Climbing Miami Center
01:48PM 26.2353 -78.1722 127° Southeast 500 575 35,000  Level Miami Center
01:49PM 26.1550 -78.0233 121° Southeast 500 575 35,000  Level Miami Center
01:50PM 26.0786 -77.8928 123° Southeast 505 581 35,000  Level Miami Center
01:51PM 25.9981 -77.7742 127° Southeast 505 581 35,000  Level Miami Center
01:52PM 25.9256 -77.6328 120° Southeast 505 581 35,000  Level Miami Center
01:53PM 25.8469 -77.5053 124° Southeast 505 581 35,000  Level Miami Center
01:54PM 25.7783 -77.3850 122° Southeast 510 587 35,000  Level Miami Center
01:55PM 25.6994 -77.2556 124° Southeast 510 587 35,000  Level Miami Center
01:56PM 25.6203 -77.1239 124° Southeast 510 587 35,000  Level Miami Center
01:57PM 25.5411 -76.9878 123° Southeast 517 595 35,000 3,000 Level Miami Center
01:58PM 25.4575 -76.8472 123° Southeast 524 603 41,000 3,000 Climbing Miami Center
01:59PM 25.3739 -76.7117 124° Southeast 529 609 41,000  Level Miami Center
02:00PM 25.2753 -76.5692 127° Southeast 543 625 41,000 -3,000 Level Miami Center
02:01PM 25.2039 -76.4361 121° Southeast 521 600 35,000 -3,000 Descending Miami Center
02:02PM 25.1219 -76.3011 124° Southeast 527 606 35,000  Level Miami Center
02:03PM 25.0400 -76.1661 124° Southeast 532 612 35,000  Level Miami Center
02:04PM 24.9556 -76.0289 124° Southeast 532 612 35,000  Level Miami Center
02:05PM 24.8483 -75.9039 133° Southeast 518 596 35,000  Level Miami Center
02:06PM 24.7367 -75.7972 139° Southeast 518 596 35,000 240 Level Miami Center
02:07PM 24.6253 -75.6883 138° Southeast 524 603 35,500 840 Climbing Miami Center
02:08PM 24.5178 -75.5797 137° Southeast 524 603 36,700 1,200 Climbing Miami Center
02:09PM 24.4122 -75.4689 136° Southeast 529 609 37,900 1,200 Climbing Miami Center
02:10PM 24.3169 -75.3469 131° Southeast 524 603 39,100 1,200 Climbing Miami Center
02:11PM 24.2361 -75.2089 123° Southeast 529 609 40,300 900 Climbing Miami Center
02:12PM 24.1531 -75.0733 124° Southeast 539 620 41,000 300 Climbing Miami Center
02:13PM 24.0739 -74.9403 123° Southeast 533 613 41,000  Level Miami Center
02:14PM 24.0078 -74.8344 124° Southeast 528 608 41,000  Level Miami Center
02:15PM 23.9181 -74.6881 124° Southeast 528 608 41,000  Level Miami Center
02:16PM 23.8408 -74.5575 123° Southeast 528 608 41,000  Level Miami Center
02:17PM 23.7594 -74.4275 124° Southeast 528 608 41,000  Level Miami Center
02:18PM 23.6756 -74.2953 125° Southeast 528 608 41,000  Level Miami Center
02:19PM 23.5939 -74.1608 124° Southeast 528 608 41,000  Level Miami Center
02:20PM 23.5142 -74.0311 124° Southeast 528 608 41,000  Level Miami Center
02:21PM 23.4322 -73.8994 124° Southeast 528 608 41,000  Level Miami Center
02:22PM 23.3522 -73.7656 123° Southeast 528 608 41,000  Level Miami Center
02:23PM 23.2681 -73.6386 126° Southeast 528 608 41,000  Level Miami Center
02:24PM 23.1878 -73.5053 123° Southeast 528 608 41,000  Level Miami Center
02:25PM 23.1036 -73.3764 125° Southeast 528 608 41,000  Level Miami Center
02:26PM 23.0231 -73.2456 124° Southeast 528 608 41,000  Level Miami Center
02:27PM 22.9469 -73.1169 123° Southeast 528 608 41,000  Level Miami Center
02:28PM 22.8642 -72.9839 124° Southeast 522 601 41,000  Level Miami Center
02:29PM 22.7814 -72.8536 125° Southeast 527 606 41,000  Level Miami Center
02:30PM 22.6967 -72.7281 126° Southeast 527 606 41,000  Level Miami Center
02:31PM 22.6158 -72.5981 124° Southeast 527 606 41,000  Level Miami Center
02:32PM 22.5328 -72.4681 125° Southeast 527 606 41,000  Level Miami Center
02:33PM 22.4517 -72.3383 124° Southeast 527 606 41,000  Level Miami Center
02:34PM 22.3703 -72.2064 124° Southeast 527 606 41,000  Level Miami Center
02:35PM 22.2892 -72.0792 125° Southeast 527 606 41,000  Level Miami Center
02:36PM 22.2058 -71.9500 125° Southeast 527 606 41,000  Level Miami Center
02:37PM 22.1244 -71.8208 124° Southeast 527 606 41,000  Level Miami Center
02:38PM 22.0342 -71.6833 125° Southeast 527 606 41,000  Level Miami Center
02:39PM 21.9506 -71.5547 125° Southeast 527 606 41,000  Level Miami Center
02:40PM 21.8667 -71.4261 125° Southeast 527 606 41,000  Level Miami Center
02:41PM 21.7847 -71.2978 124° Southeast 527 606 41,000  Level Miami Center
02:42PM 21.7028 -71.1694 124° Southeast 527 606 41,000  Level Miami Center
02:43PM 21.6208 -71.0392 124° Southeast 527 606 41,000  Level Miami Center
02:44PM 21.5367 -70.9089 125° Southeast 532 612 41,000  Level Miami Center
02:45PM 21.4503 -70.7858 127° Southeast 527 606 41,000  Level Miami Center
02:46PM 21.3661 -70.6628 126° Southeast 527 606 41,000  Level Miami Center
02:47PM 21.2819 -70.5356 125° Southeast 527 606 41,000  Level Miami Center
02:48PM 21.2153 -70.4361 126° Southeast 527 606 41,000  Level Miami Center
02:49PM 21.1261 -70.3006 125° Southeast 522 601 41,000  Level Miami Center
02:50PM 21.0414 -70.1758 126° Southeast 522 601 41,000  Level Miami Center
02:51PM 20.9567 -70.0492 126° Southeast 522 601 41,000  Level Miami Center
02:52PM 20.8719 -69.9247 126° Southeast 528 608 41,000  Level Miami Center
02:53PM 20.7872 -69.8006 126° Southeast 528 608 41,000  Level Miami Center
02:54PM 20.7042 -69.6719 125° Southeast 528 608 41,000  Level Miami Center
02:55PM 20.6194 -69.5503 127° Southeast 523 602 41,000  Level Miami Center
02:56PM 20.5364 -69.4244 125° Southeast 523 602 41,000  Level Miami Center
02:57PM 20.4533 -69.3008 126° Southeast 523 602 41,000  Level Miami Center
02:58PM 20.3681 -69.1772 126° Southeast 523 602 41,000  Level Miami Center
02:59PM 20.2869 -69.0517 125° Southeast 523 602 41,000  Level Miami Center
03:00PM 20.1975 -68.9311 128° Southeast 528 608 41,000  Level Miami Center
03:01PM 20.1122 -68.8058 126° Southeast 528 608 41,000  Level Miami Center
03:02PM 20.0306 -68.6808 125° Southeast 528 608 41,000  Level Miami Center
03:03PM 19.9450 -68.5581 127° Southeast 528 608 41,000  Level Miami Center
03:04PM 19.8656 -68.4308 124° Southeast 522 601 41,000  Level Miami Center
03:05PM 19.7839 -68.3039 124° Southeast 522 601 41,000  Level Miami Center
03:05PM 19.7500 -68.2500 124° Southeast 520 598 41,000  Level San Juan Center
03:06PM 19.6667 -68.1333 127° Southeast 520 598 41,000  Level San Juan Center
03:07PM 19.6000 -68.0000 118° Southeast 520 598 41,000  Level San Juan Center
03:08PM 19.5167 -67.8667 124° Southeast 520 598 41,000  Level San Juan Center
03:09PM 19.4333 -67.7500 127° Southeast 510 587 41,000  Level San Juan Center
03:10PM 19.3500 -67.6167 124° Southeast 520 598 41,000  Level San Juan Center
03:11PM 19.2667 -67.4833 123° Southeast 520 598 41,000  Level San Juan Center
03:12PM 19.1833 -67.3667 127° Southeast 520 598 41,000  Level San Juan Center
03:13PM 19.1000 -67.2333 123° Southeast 530 610 41,000  Level San Juan Center
03:14PM 19.0167 -67.1000 123° Southeast 520 598 41,000  Level San Juan Center
03:15PM 18.9500 -66.9667 118° Southeast 520 598 41,000  Level San Juan Center
03:16PM 18.8667 -66.8333 123° Southeast 520 598 41,000  Level San Juan Center
03:17PM 18.7833 -66.7167 127° Southeast 520 598 41,000  Level San Juan Center
03:18PM 18.7000 -66.5833 123° Southeast 520 598 41,000  Level San Juan Center
03:19PM 18.6167 -66.4667 127° Southeast 520 598 41,000  Level San Juan Center
03:20PM 18.5333 -66.3500 127° Southeast 510 587 41,000  Level San Juan Center
03:21PM 18.4500 -66.2167 123° Southeast 510 587 41,000  Level San Juan Center
03:22PM 18.3667 -66.1000 127° Southeast 520 598 41,000  Level San Juan Center
03:23PM 18.2833 -65.9667 123° Southeast 530 610 41,000  Level San Juan Center
03:24PM 18.2000 -65.8333 123° Southeast 510 587 41,000  Level San Juan Center
03:25PM 18.1167 -65.7167 127° Southeast 510 587 41,000  Level San Juan Center
03:26PM 18.0333 -65.6000 127° Southeast 500 575 41,000  Level San Juan Center
03:27PM 17.9500 -65.4667 123° Southeast 510 587 41,000  Level San Juan Center
03:28PM 17.8667 -65.3500 127° Southeast 520 598 41,000  Level San Juan Center
03:29PM 17.7833 -65.2167 123° Southeast 520 598 41,000  Level San Juan Center
03:30PM 17.7000 -65.1000 127° Southeast 510 587 41,000  Level San Juan Center
03:31PM 17.6167 -64.9667 123° Southeast 510 587 41,000  Level San Juan Center
03:32PM 17.5333 -64.8500 127° Southeast 510 587 41,000  Level San Juan Center
03:33PM 17.4667 -64.7333 121° Southeast 510 587 41,000  Level San Juan Center
03:34PM 17.3833 -64.6000 123° Southeast 510 587 41,000  Level San Juan Center
03:35PM 17.3000 -64.4833 127° Southeast 510 587 41,000  Level San Juan Center
03:36PM 17.2167 -64.3667 127° Southeast 510 587 41,000  Level San Juan Center
03:37PM 17.1333 -64.2333 123° Southeast 510 587 41,000  Level San Juan Center
03:38PM 17.0500 -64.1167 127° Southeast 510 587 41,000  Level San Juan Center
03:39PM 16.9667 -63.9833 123° Southeast 510 587 41,000  Level San Juan Center
03:40PM 16.8833 -63.8833 131° Southeast 510 587 41,000  Level San Juan Center
03:41PM 16.8000 -63.7500 123° Southeast 510 587 41,000  Level San Juan Center
03:42PM 16.7167 -63.6333 127° Southeast 510 587 41,000  Level San Juan Center
03:43PM 16.6333 -63.5167 127° Southeast 510 587 41,000  Level San Juan Center
03:45PM 16.5500 -63.3833 123° Southeast 510 587 41,000  Level San Juan Center
03:46PM 16.4667 -63.2667 127° Southeast 510 587 41,000  Level San Juan Center
03:47PM 16.4000 -63.1667 125° Southeast 500 575 41,000  Level San Juan Center
03:48PM 16.3333 -63.0333 118° Southeast 510 587 41,000  Level San Juan Center
03:50PM 16.1558 -62.8310 132° Southeast  Level FlightAware Approximate
03:57PM 15.5370 -62.1104 132° Southeast  Level FlightAware Approximate
03:58PM 15.4484 -62.0078 132° Southeast  Level FlightAware Approximate
03:59PM 15.3597 -61.9054 132° Southeast  Level FlightAware Approximate
04:00PM 15.2710 -61.8030 132° Southeast  Level FlightAware Approximate
04:01PM 15.1822 -61.7007 132° Southeast  Level FlightAware Approximate
04:02PM 15.0934 -61.5985 132° Southeast  Level FlightAware Approximate
04:03PM 15.0045 -61.4964 132° Southeast  Level FlightAware Approximate
04:04PM 14.9156 -61.3944 132° Southeast  Level FlightAware Approximate
04:05PM 14.8266 -61.2924 132° Southeast  Level FlightAware Approximate
04:06PM 14.7376 -61.1906 132° Southeast  Level FlightAware Approximate
04:07PM 14.6486 -61.0888 132° Southeast  Level FlightAware Approximate
04:08PM 14.5587 -60.9879 132° Southeast  Level FlightAware Approximate
04:09PM 14.4683 -60.8879 142° Southeast  Level FlightAware Approximate
04:10PM 14.3667 -60.8000 136° Southeast  Level FlightAware Approximate
04:11PM 14.2713 -60.7047 136° Southeast  Level FlightAware Approximate
04:12PM 14.1849 -60.6016 136° Southeast  Level FlightAware Approximate
04:13PM 14.0896 -60.5063 136° Southeast  Level FlightAware Approximate
04:14PM 13.9944 -60.4109 136° Southeast  Level FlightAware Approximate
04:15PM 13.8992 -60.3156 136° Southeast  Level FlightAware Approximate
04:16PM 13.8040 -60.2204 136° Southeast  Level FlightAware Approximate
04:17PM 13.7087 -60.1252 136° Southeast  Level FlightAware Approximate
04:18PM 13.6134 -60.0301 136° Southeast  Level FlightAware Approximate
04:19PM 13.5182 -59.9349 136° Southeast  Level FlightAware Approximate
04:20PM 13.4231 -59.8397 136° Southeast  Level FlightAware Approximate
04:21PM 13.3279 -59.7446 136° Southeast  Level FlightAware Approximate
04:22PM 13.2328 -59.6495 136° Southeast  Level FlightAware Approximate
04:23PM 13.1450 -59.5546 144° Southeast  Level FlightAware Approximate
04:24PM 13.0746 -59.4925 90° East  Level Estimated
04:25PM 13.0746 -59.4925 90° East  Level Estimated
04:26PM 13.0746 -59.4925 90° East  Level Estimated
04:27PM 13.0746 -59.4925 90° East  Level Estimated
04:28PM 13.0746 -59.4925 90° East  Level Estimated
04:29PM 13.0746 -59.4925 90° East  Level Estimated
04:30PM 13.0746 -59.4925 90° East  Level Estimated
04:31PM 13.0746 -59.4925 90° East  Level Estimated
04:32PM 13.0746 -59.4925 90° East  Level Estimated
04:33PM 13.0746 -59.4925 90° East  Level Estimated
04:34PM 13.0746 -59.4925 90° East  Level Estimated
04:35PM 13.0746 -59.4925 90° East  Level Estimated
04:36PM 13.0746 -59.4925 90° East  Level Estimated
04:37PM 13.0746 -59.4925 90° East  Level Estimated
04:38PM 13.0746 -59.4925 90° East  Level Estimated
04:39PM 13.0746 -59.4925 90° East  Level Estimated
04:40PM 13.0746 -59.4925 90° East  Level Estimated
04:41PM 13.0746 -59.4925 90° East  Level Estimated
04:42PM 13.0746 -59.4925 90° East  Level Estimated
04:43PM 13.0746 -59.4925 90° East  Level Estimated
04:44PM 13.0746 -59.4925 90° East  Level Estimated
04:45PM 13.0746 -59.4925 90° East  Level Estimated
04:46PM 13.0746 -59.4925 90° East  Level Estimated
04:47PM 13.0746 -59.4925 90° East  Level Estimated